25.2°F
Current conditions from King Hill
Updated every 5 minutes
 
  Monday December 22, 2014

Station Historical Data
Daily Summary for May 21, 2012 Units:  English    Metric   Both
« Previous Day
Next Day »
Daily Weekly Monthly Yearly Custom
  High: Low: Average:
Temperature: 79.8 °F 57.1 °F 69.1 °F
Dew Point: 59.9 °F 37.7 °F 52.6 °F
Humidity: 84% 23% 59%
Wind Speed: 6.0mph 0.0mph 2.5mph
Wind Gust: 16.0mph - -
Wind- - SSW
Pressure: 30.15 in 29.95 in -
Precipitation: 0.00 in    
Historical Graphs
 
 
Tabular Data for May 21, 2012
Time Temperature Dew Point Pressure Wind Wind Speed Wind Gust Humidity Daily Rainfall
00:04 64.1 °F 53.3 °F 30.14 in Calm   3.0 mph 68% 0.00 in
00:09 63.9 °F 53.5 °F 30.14 in SSW 1.0 mph 4.0 mph 69% 0.00 in
00:14 63.6 °F 53.3 °F 30.14 in Calm   4.0 mph 69% 0.00 in
00:19 63.3 °F 53.4 °F 30.14 in Calm   1.0 mph 70% 0.00 in
00:25 63.2 °F 53.3 °F 30.14 in Calm   1.0 mph 70% 0.00 in
00:35 62.7 °F 53.2 °F 30.14 in Calm   1.0 mph 71% 0.00 in
00:44 62.1 °F 53.0 °F 30.14 in Calm   3.0 mph 72% 0.00 in
00:49 62.1 °F 53.0 °F 30.14 in Calm   3.0 mph 72% 0.00 in
00:54 62.0 °F 52.9 °F 30.14 in Calm     72% 0.00 in
00:59 62.0 °F 52.9 °F 30.14 in Calm   1.0 mph 72% 0.00 in
01:04 61.9 °F 52.8 °F 30.14 in SSW 1.0 mph 3.0 mph 72% 0.00 in
01:09 61.9 °F 52.8 °F 30.14 in Calm   3.0 mph 72% 0.00 in
01:14 61.8 °F 53.1 °F 30.14 in Calm   1.0 mph 73% 0.00 in
01:19 61.8 °F 52.7 °F 30.14 in Calm   1.0 mph 72% 0.00 in
01:25 62.2 °F 53.4 °F 30.14 in Calm   1.0 mph 73% 0.00 in
01:34 62.3 °F 53.2 °F 30.14 in Calm     72% 0.00 in
01:39 62.1 °F 53.0 °F 30.14 in Calm     72% 0.00 in
01:44 61.7 °F 53.0 °F 30.14 in Calm     73% 0.00 in
01:49 61.8 °F 53.1 °F 30.14 in Calm     73% 0.00 in
01:54 62.0 °F 52.9 °F 30.14 in Calm     72% 0.00 in
01:59 62.2 °F 53.4 °F 30.14 in Calm     73% 0.00 in
02:04 61.9 °F 53.2 °F 30.14 in Calm     73% 0.00 in
02:09 61.3 °F 53.0 °F 30.14 in Calm     74% 0.00 in
02:19 60.6 °F 53.0 °F 30.14 in Calm     76% 0.00 in
02:25 60.7 °F 53.1 °F 30.14 in Calm     76% 0.00 in
02:34 61.1 °F 53.1 °F 30.14 in Calm   1.0 mph 75% 0.00 in
02:40 61.4 °F 52.7 °F 30.14 in Calm   3.0 mph 73% 0.00 in
02:49 61.9 °F 53.2 °F 30.14 in Calm   7.0 mph 73% 0.00 in
02:54 61.8 °F 53.1 °F 30.14 in Calm     73% 0.00 in
02:59 61.7 °F 53.0 °F 30.14 in Calm   1.0 mph 73% 0.00 in
03:04 61.5 °F 52.8 °F 30.14 in Calm   1.0 mph 73% 0.00 in
03:09 61.3 °F 52.6 °F 30.14 in Calm   1.0 mph 73% 0.00 in
03:14 61.0 °F 52.7 °F 30.14 in Calm   1.0 mph 74% 0.00 in
03:19 60.9 °F 52.6 °F 30.14 in Calm   3.0 mph 74% 0.00 in
03:24 60.9 °F 52.6 °F 30.14 in Calm   3.0 mph 74% 0.00 in
03:29 60.7 °F 52.4 °F 30.14 in Calm     74% 0.00 in
03:34 60.5 °F 52.5 °F 30.14 in Calm     75% 0.00 in
03:39 60.2 °F 52.3 °F 30.15 in Calm     75% 0.00 in
03:45 59.9 °F 52.0 °F 30.15 in Calm     75% 0.00 in
03:54 59.5 °F 51.6 °F 30.15 in Calm   1.0 mph 75% 0.00 in
03:59 59.5 °F 51.9 °F 30.15 in Calm     76% 0.00 in
04:04 59.6 °F 52.0 °F 30.14 in Calm   1.0 mph 76% 0.00 in
04:09 59.8 °F 52.2 °F 30.15 in Calm   1.0 mph 76% 0.00 in
04:14 59.5 °F 51.9 °F 30.15 in Calm     76% 0.00 in
04:19 59.0 °F 51.8 °F 30.15 in Calm     77% 0.00 in
04:25 58.3 °F 51.1 °F 30.15 in Calm     77% 0.00 in
04:30 58.1 °F 50.9 °F 30.15 in Calm     77% 0.00 in
04:39 57.8 °F 50.6 °F 30.14 in Calm     77% 0.00 in
04:44 58.5 °F 51.0 °F 30.14 in Calm     76% 0.00 in
04:49 58.5 °F 51.0 °F 30.15 in Calm     76% 0.00 in
04:54 58.0 °F 50.8 °F 30.15 in Calm     77% 0.00 in
04:59 57.5 °F 50.7 °F 30.15 in Calm     78% 0.00 in
05:04 57.1 °F 50.7 °F 30.14 in Calm     79% 0.00 in
05:09 57.1 °F 50.3 °F 30.15 in Calm     78% 0.00 in
05:14 57.3 °F 50.5 °F 30.14 in Calm   1.0 mph 78% 0.00 in
05:19 57.5 °F 50.4 °F 30.14 in Calm   1.0 mph 77% 0.00 in
05:24 58.0 °F 50.8 °F 30.14 in Calm   4.0 mph 77% 0.00 in
05:29 59.0 °F 50.7 °F 30.14 in Calm   4.0 mph 74% 0.00 in
05:34 60.1 °F 51.1 °F 30.14 in South 2.0 mph 6.0 mph 72% 0.00 in
05:44 61.5 °F 51.2 °F 30.14 in Calm   4.0 mph 69% 0.00 in
05:49 61.5 °F 51.2 °F 30.14 in Calm   2.0 mph 69% 0.00 in
05:54 61.3 °F 50.7 °F 30.14 in Calm     68% 0.00 in
05:59 61.1 °F 50.5 °F 30.14 in Calm     68% 0.00 in
06:04 61.0 °F 50.8 °F 30.14 in Calm     69% 0.00 in
06:09 60.6 °F 50.8 °F 30.14 in Calm     70% 0.00 in
06:14 60.4 °F 50.6 °F 30.14 in Calm     70% 0.00 in
06:19 60.3 °F 51.2 °F 30.14 in Calm   3.0 mph 72% 0.00 in
06:24 60.2 °F 51.1 °F 30.14 in Calm   3.0 mph 72% 0.00 in
06:29 60.1 °F 51.1 °F 30.14 in Calm   2.0 mph 72% 0.00 in
06:34 60.0 °F 51.0 °F 30.14 in Calm   1.0 mph 72% 0.00 in
06:39 60.1 °F 51.4 °F 30.14 in Calm   3.0 mph 73% 0.00 in
06:44 60.2 °F 51.5 °F 30.14 in Calm   3.0 mph 73% 0.00 in
06:50 60.4 °F 51.0 °F 30.14 in Calm   3.0 mph 71% 0.00 in
06:59 61.3 °F 51.1 °F 30.15 in Calm   5.0 mph 69% 0.00 in
07:04 62.0 °F 50.9 °F 30.15 in SW 1.0 mph 6.0 mph 67% 0.00 in
07:09 62.9 °F 51.0 °F 30.15 in SW 1.0 mph 6.0 mph 65% 0.00 in
07:14 63.6 °F 51.2 °F 30.15 in Calm   6.0 mph 64% 0.00 in
07:19 64.0 °F 51.6 °F 30.15 in SW 1.0 mph 5.0 mph 64% 0.00 in
07:24 64.4 °F 51.5 °F 30.15 in Calm   5.0 mph 63% 0.00 in
07:29 64.7 °F 51.8 °F 30.15 in Calm   5.0 mph 63% 0.00 in
07:34 65.1 °F 52.2 °F 30.15 in Calm   5.0 mph 63% 0.00 in
07:39 65.4 °F 51.6 °F 30.15 in SE 1.0 mph 5.0 mph 61% 0.00 in
07:44 65.8 °F 52.0 °F 30.15 in South 1.0 mph 5.0 mph 61% 0.00 in
07:49 66.3 °F 51.6 °F 30.14 in SSW 1.0 mph 6.0 mph 59% 0.00 in
07:54 67.0 °F 52.2 °F 30.15 in SE 1.0 mph 8.0 mph 59% 0.00 in
07:59 67.7 °F 52.9 °F 30.14 in SSW 1.0 mph 8.0 mph 59% 0.00 in
08:04 68.5 °F 53.2 °F 30.15 in Calm   7.0 mph 58% 0.00 in
08:09 68.9 °F 52.1 °F 30.15 in Calm   8.0 mph 55% 0.00 in
08:14 69.2 °F 52.9 °F 30.15 in Calm   8.0 mph 56% 0.00 in
08:19 69.7 °F 53.8 °F 30.15 in SW 1.0 mph 6.0 mph 57% 0.00 in
08:24 69.7 °F 53.8 °F 30.15 in SSW 1.0 mph 7.0 mph 57% 0.00 in
08:29 69.9 °F 53.0 °F 30.15 in SW 2.0 mph 8.0 mph 55% 0.00 in
08:35 70.3 °F 52.9 °F 30.15 in Calm   8.0 mph 54% 0.00 in
08:44 71.0 °F 53.0 °F 30.15 in Calm   7.0 mph 53% 0.00 in
08:49 71.3 °F 54.3 °F 30.14 in Calm   7.0 mph 55% 0.00 in
08:54 71.2 °F 53.7 °F 30.14 in SW 2.0 mph 7.0 mph 54% 0.00 in
08:59 71.3 °F 54.3 °F 30.14 in SW 1.0 mph 8.0 mph 55% 0.00 in
09:04 71.7 °F 52.1 °F 30.14 in SSW 2.0 mph 9.0 mph 50% 0.00 in
09:09 72.0 °F 53.4 °F 30.14 in SW 1.0 mph 9.0 mph 52% 0.00 in
09:14 72.1 °F 51.9 °F 30.14 in SW 2.0 mph 10.0 mph 49% 0.00 in
09:19 72.3 °F 52.1 °F 30.14 in SW 2.0 mph 10.0 mph 49% 0.00 in
09:24 72.4 °F 50.5 °F 30.14 in SSW 3.0 mph 8.0 mph 46% 0.00 in
09:29 72.6 °F 48.8 °F 30.14 in SSW 3.0 mph 8.0 mph 43% 0.00 in
09:35 73.1 °F 51.7 °F 30.13 in Calm   8.0 mph 47% 0.00 in
09:44 73.5 °F 49.0 °F 30.13 in SW 1.0 mph 12.0 mph 42% 0.00 in
09:49 73.9 °F 48.7 °F 30.13 in South 3.0 mph 12.0 mph 41% 0.00 in
09:55 73.9 °F 43.8 °F 30.13 in SSE 5.0 mph 14.0 mph 34% 0.00 in
10:04 74.5 °F 46.5 °F 30.12 in SW 2.0 mph 10.0 mph 37% 0.00 in
10:10 74.8 °F 46.1 °F 30.12 in SW 1.0 mph 9.0 mph 36% 0.00 in
10:19 75.3 °F 43.4 °F 30.12 in SSW 1.0 mph 8.0 mph 32% 0.00 in
10:24 75.3 °F 45.8 °F 30.12 in SW 5.0 mph 10.0 mph 35% 0.00 in
10:29 75.6 °F 44.5 °F 30.12 in SW 1.0 mph 10.0 mph 33% 0.00 in
10:34 75.9 °F 44.0 °F 30.12 in SSW 1.0 mph 10.0 mph 32% 0.00 in
10:39 76.2 °F 42.5 °F 30.11 in SSW 2.0 mph 11.0 mph 30% 0.00 in
10:45 76.2 °F 41.7 °F 30.11 in Calm   11.0 mph 29% 0.00 in
10:54 76.7 °F 43.8 °F 30.11 in SW 1.0 mph 11.0 mph 31% 0.00 in
10:59 76.9 °F 43.1 °F 30.11 in SSW 3.0 mph 11.0 mph 30% 0.00 in
11:04 76.7 °F 43.8 °F 30.11 in South 2.0 mph 15.0 mph 31% 0.00 in
11:09 76.8 °F 40.3 °F 30.11 in South 2.0 mph 15.0 mph 27% 0.00 in
11:14 77.1 °F 41.5 °F 30.11 in South 2.0 mph 11.0 mph 28% 0.00 in
11:19 77.5 °F 42.8 °F 30.11 in Calm   11.0 mph 29% 0.00 in
11:24 77.9 °F 40.3 °F 30.10 in SW 3.0 mph 11.0 mph 26% 0.00 in
11:35 78.2 °F 41.5 °F 30.10 in SSW 3.0 mph 13.0 mph 27% 0.00 in
11:44 78.5 °F 38.7 °F 30.10 in South 6.0 mph 14.0 mph 24% 0.00 in
11:49 78.4 °F 41.7 °F 30.10 in SSW 4.0 mph 14.0 mph 27% 0.00 in
11:54 78.3 °F 41.6 °F 30.10 in SSW 3.0 mph 12.0 mph 27% 0.00 in
11:59 78.3 °F 42.5 °F 30.10 in South 5.0 mph 12.0 mph 28% 0.00 in
12:04 78.5 °F 37.7 °F 30.10 in South 2.0 mph 10.0 mph 23% 0.00 in
12:09 78.3 °F 45.2 °F 30.10 in SSW 4.0 mph 15.0 mph 31% 0.00 in
12:14 78.4 °F 42.6 °F 30.10 in South 4.0 mph 15.0 mph 28% 0.00 in
12:19 78.5 °F 41.8 °F 30.09 in SSW 1.0 mph 10.0 mph 27% 0.00 in
12:24 79.0 °F 43.1 °F 30.09 in South 2.0 mph 10.0 mph 28% 0.00 in
12:29 79.3 °F 42.5 °F 30.09 in SSW 4.0 mph 15.0 mph 27% 0.00 in
12:34 79.6 °F 49.6 °F 30.09 in SW 1.0 mph 15.0 mph 35% 0.00 in
12:39 79.8 °F 48.2 °F 30.09 in South 3.0 mph 10.0 mph 33% 0.00 in
12:44 79.7 °F 45.6 °F 30.08 in SSE 3.0 mph 12.0 mph 30% 0.00 in
12:50 79.8 °F 44.8 °F 30.08 in SSW 5.0 mph 12.0 mph 29% 0.00 in
12:59 79.6 °F 46.3 °F 30.08 in SW 5.0 mph 15.0 mph 31% 0.00 in
13:04 78.9 °F 47.4 °F 30.07 in SSW 5.0 mph 15.0 mph 33% 0.00 in
13:09 78.7 °F 43.8 °F 30.08 in SSE 4.0 mph 15.0 mph 29% 0.00 in
13:14 78.9 °F 49.0 °F 30.07 in SW 1.0 mph 14.0 mph 35% 0.00 in
13:19 79.4 °F 48.6 °F 30.07 in SSE 3.0 mph 8.0 mph 34% 0.00 in
13:24 79.3 °F 46.1 °F 30.07 in South 3.0 mph 10.0 mph 31% 0.00 in
13:30 79.2 °F 44.2 °F 30.07 in SSE 6.0 mph 13.0 mph 29% 0.00 in
13:35 79.1 °F 47.6 °F 30.06 in SSE 3.0 mph 13.0 mph 33% 0.00 in
13:40 78.9 °F 49.7 °F 30.06 in SSW 4.0 mph 11.0 mph 36% 0.00 in
13:45 79.0 °F 47.5 °F 30.06 in SSW 3.0 mph 11.0 mph 33% 0.00 in
13:54 79.2 °F 45.1 °F 30.06 in SSE 4.0 mph 12.0 mph 30% 0.00 in
13:59 78.7 °F 44.7 °F 30.06 in SSE 6.0 mph 12.0 mph 30% 0.00 in
14:04 78.4 °F 46.1 °F 30.05 in SE 3.0 mph 11.0 mph 32% 0.00 in
14:09 78.7 °F 44.7 °F 30.05 in SE 2.0 mph 11.0 mph 30% 0.00 in
14:14 79.0 °F 45.8 °F 30.05 in SSE 5.0 mph 12.0 mph 31% 0.00 in
14:19 79.0 °F 46.7 °F 30.05 in SSW 2.0 mph 12.0 mph 32% 0.00 in
14:24 78.7 °F 47.2 °F 30.05 in South 2.0 mph 16.0 mph 33% 0.00 in
14:29 78.4 °F 48.5 °F 30.04 in SSW 1.0 mph 16.0 mph 35% 0.00 in
14:34 78.2 °F 50.5 °F 30.04 in SSE 1.0 mph 8.0 mph 38% 0.00 in
14:40 78.4 °F 47.0 °F 30.04 in SSW 1.0 mph 8.0 mph 33% 0.00 in
14:49 78.6 °F 51.6 °F 30.04 in Calm   9.0 mph 39% 0.00 in
14:54 78.7 °F 50.3 °F 30.04 in SW 1.0 mph 7.0 mph 37% 0.00 in
14:59 79.0 °F 53.3 °F 30.03 in West 1.0 mph 6.0 mph 41% 0.00 in
15:04 79.0 °F 52.6 °F 30.03 in WSW 1.0 mph 6.0 mph 40% 0.00 in
15:09 78.9 °F 53.9 °F 30.03 in Calm   6.0 mph 42% 0.00 in
15:14 79.1 °F 52.1 °F 30.03 in Calm   6.0 mph 39% 0.00 in
15:19 79.3 °F 55.5 °F 30.02 in Calm   3.0 mph 44% 0.00 in
15:25 79.3 °F 51.5 °F 30.02 in Calm   7.0 mph 38% 0.00 in
15:35 78.7 °F 53.7 °F 30.02 in West 3.0 mph 7.0 mph 42% 0.00 in
15:44 78.6 °F 55.5 °F 30.02 in WSW 2.0 mph 7.0 mph 45% 0.00 in
15:49 78.2 °F 55.1 °F 30.02 in Calm   7.0 mph 45% 0.00 in
15:54 78.0 °F 54.4 °F 30.01 in Calm   5.0 mph 44% 0.00 in
15:59 77.8 °F 53.5 °F 30.02 in West 1.0 mph 5.0 mph 43% 0.00 in
16:05 77.5 °F 53.9 °F 30.01 in Calm   5.0 mph 44% 0.00 in
16:14 78.0 °F 56.2 °F 30.01 in West 1.0 mph 5.0 mph 47% 0.00 in
16:19 77.9 °F 56.1 °F 30.01 in Calm   7.0 mph 47% 0.00 in
16:24 77.9 °F 54.3 °F 30.01 in Calm   7.0 mph 44% 0.00 in
16:29 78.2 °F 55.8 °F 30.01 in West 1.0 mph 6.0 mph 46% 0.00 in
16:34 78.0 °F 56.7 °F 30.01 in SW 2.0 mph 7.0 mph 48% 0.00 in
16:39 77.4 °F 55.6 °F 30.01 in West 2.0 mph 7.0 mph 47% 0.00 in
16:44 77.3 °F 54.3 °F 30.01 in SW 6.0 mph 14.0 mph 45% 0.00 in
16:55 76.0 °F 55.5 °F 30.00 in SW 2.0 mph 11.0 mph 49% 0.00 in
16:59 76.1 °F 55.6 °F 30.01 in SW 2.0 mph 13.0 mph 49% 0.00 in
17:05 77.0 °F 55.3 °F 30.01 in SW 5.0 mph 13.0 mph 47% 0.00 in
17:09 77.0 °F 56.4 °F 30.00 in Calm   11.0 mph 49% 0.00 in
17:15 76.8 °F 55.7 °F 30.00 in WSW 1.0 mph 7.0 mph 48% 0.00 in
17:19 76.2 °F 56.2 °F 30.00 in WSW 4.0 mph 7.0 mph 50% 0.00 in
17:24 75.7 °F 55.8 °F 30.00 in WSW 4.0 mph 7.0 mph 50% 0.00 in
17:30 75.3 °F 55.9 °F 30.00 in South 1.0 mph 7.0 mph 51% 0.00 in
17:40 75.0 °F 55.7 °F 30.00 in SW 3.0 mph 9.0 mph 51% 0.00 in
17:50 74.5 °F 56.8 °F 30.00 in SSW 4.0 mph 10.0 mph 54% 0.00 in
17:54 74.4 °F 56.7 °F 30.00 in SW 3.0 mph 10.0 mph 54% 0.00 in
17:59 74.6 °F 57.4 °F 30.00 in WSW 1.0 mph 7.0 mph 55% 0.00 in
18:04 74.6 °F 57.4 °F 30.00 in SSW 4.0 mph 11.0 mph 55% 0.00 in
18:09 74.6 °F 58.4 °F 30.00 in SSW 1.0 mph 11.0 mph 57% 0.00 in
18:14 74.2 °F 58.5 °F 30.00 in SW 3.0 mph 7.0 mph 58% 0.00 in
18:19 73.9 °F 58.2 °F 30.00 in SW 3.0 mph 8.0 mph 58% 0.00 in
18:24 74.0 °F 59.3 °F 30.00 in SSW 2.0 mph 8.0 mph 60% 0.00 in
18:29 74.4 °F 59.2 °F 30.00 in SW 2.0 mph 6.0 mph 59% 0.00 in
18:34 74.3 °F 58.6 °F 30.00 in SSW 4.0 mph 9.0 mph 58% 0.00 in
18:39 74.1 °F 59.3 °F 30.00 in SW 3.0 mph 10.0 mph 60% 0.00 in
18:44 74.0 °F 59.3 °F 29.99 in South 4.0 mph 11.0 mph 60% 0.00 in
18:49 73.7 °F 58.5 °F 29.99 in SSW 4.0 mph 11.0 mph 59% 0.00 in
18:54 73.3 °F 58.6 °F 29.99 in SW 5.0 mph 9.0 mph 60% 0.00 in
18:59 72.8 °F 59.0 °F 29.99 in SSW 3.0 mph 9.0 mph 62% 0.00 in
19:04 72.5 °F 59.2 °F 29.99 in SW 1.0 mph 7.0 mph 63% 0.00 in
19:09 71.9 °F 58.6 °F 29.99 in SSW 4.0 mph 9.0 mph 63% 0.00 in
19:14 71.5 °F 58.7 °F 29.99 in SW 1.0 mph 9.0 mph 64% 0.00 in
19:19 71.1 °F 59.2 °F 29.98 in SW 4.0 mph 9.0 mph 66% 0.00 in
19:25 70.4 °F 59.8 °F 29.99 in SW 4.0 mph 9.0 mph 69% 0.00 in
19:34 69.7 °F 59.9 °F 29.98 in SW 1.0 mph 7.0 mph 71% 0.00 in
19:39 69.4 °F 59.6 °F 29.98 in Calm   6.0 mph 71% 0.00 in
19:44 69.1 °F 59.7 °F 29.98 in Calm   6.0 mph 72% 0.00 in
19:49 68.7 °F 59.3 °F 29.98 in SSW 1.0 mph 5.0 mph 72% 0.00 in
19:55 68.5 °F 59.1 °F 29.98 in Calm   5.0 mph 72% 0.00 in
20:04 68.1 °F 59.1 °F 29.97 in SSW 1.0 mph 7.0 mph 73% 0.00 in
20:09 67.9 °F 58.9 °F 29.97 in SW 1.0 mph 6.0 mph 73% 0.00 in
20:14 67.8 °F 59.2 °F 29.97 in Calm   6.0 mph 74% 0.00 in
20:19 67.7 °F 59.1 °F 29.97 in Calm   5.0 mph 74% 0.00 in
20:24 67.5 °F 58.9 °F 29.97 in Calm   5.0 mph 74% 0.00 in
20:29 67.3 °F 59.1 °F 29.97 in Calm   5.0 mph 75% 0.00 in
20:34 67.1 °F 59.3 °F 29.97 in Calm     76% 0.00 in
20:39 66.7 °F 59.3 °F 29.97 in Calm     77% 0.00 in
20:45 66.3 °F 58.9 °F 29.98 in Calm     77% 0.00 in
20:54 65.5 °F 58.8 °F 29.98 in Calm     79% 0.00 in
20:59 65.2 °F 58.9 °F 29.98 in Calm   1.0 mph 80% 0.00 in
21:04 65.1 °F 58.8 °F 29.98 in Calm   1.0 mph 80% 0.00 in
21:09 65.0 °F 59.0 °F 29.98 in Calm   1.0 mph 81% 0.00 in
21:14 65.0 °F 58.7 °F 29.98 in Calm   1.0 mph 80% 0.00 in
21:19 65.0 °F 58.7 °F 29.98 in Calm     80% 0.00 in
21:24 65.0 °F 58.7 °F 29.97 in Calm   2.0 mph 80% 0.00 in
21:29 65.3 °F 59.0 °F 29.98 in Calm   5.0 mph 80% 0.00 in
21:34 65.5 °F 58.8 °F 29.97 in Calm   5.0 mph 79% 0.00 in
21:45 65.7 °F 59.0 °F 29.97 in Calm   2.0 mph 79% 0.00 in
21:54 65.5 °F 58.8 °F 29.97 in Calm   3.0 mph 79% 0.00 in
21:59 65.3 °F 58.6 °F 29.97 in Calm   3.0 mph 79% 0.00 in
22:04 65.2 °F 58.9 °F 29.97 in Calm   2.0 mph 80% 0.00 in
22:09 65.3 °F 59.0 °F 29.97 in Calm   1.0 mph 80% 0.00 in
22:14 65.2 °F 58.9 °F 29.97 in Calm   1.0 mph 80% 0.00 in
22:19 65.0 °F 58.7 °F 29.97 in Calm   1.0 mph 80% 0.00 in
22:24 64.8 °F 58.8 °F 29.97 in Calm   1.0 mph 81% 0.00 in
22:29 64.8 °F 58.8 °F 29.97 in Calm   1.0 mph 81% 0.00 in
22:34 64.7 °F 58.7 °F 29.97 in Calm     81% 0.00 in
22:39 64.6 °F 58.6 °F 29.97 in Calm     81% 0.00 in
22:44 64.5 °F 58.9 °F 29.97 in Calm   1.0 mph 82% 0.00 in
22:49 64.5 °F 58.9 °F 29.97 in Calm   1.0 mph 82% 0.00 in
22:54 64.4 °F 58.8 °F 29.96 in Calm     82% 0.00 in
23:00 64.2 °F 58.6 °F 29.96 in Calm     82% 0.00 in
23:09 64.1 °F 58.5 °F 29.96 in Calm   1.0 mph 82% 0.00 in
23:14 64.3 °F 58.7 °F 29.96 in Calm   5.0 mph 82% 0.00 in
23:19 64.4 °F 58.8 °F 29.96 in Calm   5.0 mph 82% 0.00 in
23:24 64.4 °F 59.1 °F 29.96 in Calm   1.0 mph 83% 0.00 in
23:30 64.2 °F 58.9 °F 29.96 in Calm   1.0 mph 83% 0.00 in
23:40 63.6 °F 58.7 °F 29.95 in Calm     84% 0.00 in
23:49 63.2 °F 58.3 °F 29.95 in Calm     84% 0.00 in
23:54 63.2 °F 58.3 °F 29.95 in Calm   1.0 mph 84% 0.00 in
23:59 63.3 °F 58.4 °F 29.95 in Calm   1.0 mph 84% 0.00 in
Westford Weather
Compliments of Weather Underground

 
 
Current Radar Loop:

Copyright © WestfordWeather.net 2007-2014. All rights reserved.